sensor_id;sensor_type;location;lat;lon;timestamp;P1;durP1;ratioP1;P2;durP2;ratioP2
39346;SDS011;26262;49.836;6.632;2024-03-02T00:00:36;3.95;;;1.13;;
39346;SDS011;26262;49.836;6.632;2024-03-02T00:03:02;1.52;;;0.70;;
39346;SDS011;26262;49.836;6.632;2024-03-02T00:05:28;5.85;;;1.00;;
39346;SDS011;26262;49.836;6.632;2024-03-02T00:07:57;2.45;;;0.93;;
39346;SDS011;26262;49.836;6.632;2024-03-02T00:10:26;3.13;;;0.90;;
39346;SDS011;26262;49.836;6.632;2024-03-02T00:13:00;3.20;;;1.20;;
39346;SDS011;26262;49.836;6.632;2024-03-02T00:18:11;2.15;;;0.95;;
39346;SDS011;26262;49.836;6.632;2024-03-02T00:20:40;1.30;;;0.65;;
39346;SDS011;26262;49.836;6.632;2024-03-02T00:23:06;4.55;;;1.10;;
39346;SDS011;26262;49.836;6.632;2024-03-02T00:25:48;2.97;;;0.82;;
39346;SDS011;26262;49.836;6.632;2024-03-02T00:28:27;1.90;;;1.00;;
39346;SDS011;26262;49.836;6.632;2024-03-02T00:30:55;6.80;;;1.60;;
39346;SDS011;26262;49.836;6.632;2024-03-02T00:33:27;3.78;;;1.27;;
39346;SDS011;26262;49.836;6.632;2024-03-02T00:36:12;1.75;;;0.90;;
39346;SDS011;26262;49.836;6.632;2024-03-02T00:38:46;4.38;;;0.88;;
39346;SDS011;26262;49.836;6.632;2024-03-02T00:41:19;5.15;;;0.85;;
39346;SDS011;26262;49.836;6.632;2024-03-02T00:46:34;3.60;;;1.00;;
39346;SDS011;26262;49.836;6.632;2024-03-02T00:49:02;1.55;;;0.95;;
39346;SDS011;26262;49.836;6.632;2024-03-02T00:53:57;2.40;;;0.90;;
39346;SDS011;26262;49.836;6.632;2024-03-02T00:56:24;3.90;;;0.70;;
39346;SDS011;26262;49.836;6.632;2024-03-02T00:58:50;3.60;;;0.70;;
39346;SDS011;26262;49.836;6.632;2024-03-02T01:01:16;2.90;;;1.20;;
39346;SDS011;26262;49.836;6.632;2024-03-02T01:03:43;4.32;;;0.80;;
39346;SDS011;26262;49.836;6.632;2024-03-02T01:06:08;4.88;;;1.88;;
39346;SDS011;26262;49.836;6.632;2024-03-02T01:08:35;2.78;;;1.10;;
39346;SDS011;26262;49.836;6.632;2024-03-02T01:11:01;5.13;;;0.93;;
39346;SDS011;26262;49.836;6.632;2024-03-02T01:13:27;3.33;;;0.90;;
39346;SDS011;26262;49.836;6.632;2024-03-02T01:15:52;3.38;;;0.80;;
39346;SDS011;26262;49.836;6.632;2024-03-02T01:18:18;1.70;;;0.73;;
39346;SDS011;26262;49.836;6.632;2024-03-02T01:20:44;3.72;;;1.45;;
39346;SDS011;26262;49.836;6.632;2024-03-02T01:23:09;2.40;;;1.23;;
39346;SDS011;26262;49.836;6.632;2024-03-02T01:25:35;4.90;;;2.35;;
39346;SDS011;26262;49.836;6.632;2024-03-02T01:28:00;3.50;;;1.60;;
39346;SDS011;26262;49.836;6.632;2024-03-02T01:30:26;5.80;;;1.83;;
39346;SDS011;26262;49.836;6.632;2024-03-02T01:32:52;5.18;;;1.77;;
39346;SDS011;26262;49.836;6.632;2024-03-02T01:35:17;4.38;;;1.92;;
39346;SDS011;26262;49.836;6.632;2024-03-02T01:37:43;4.32;;;2.20;;
39346;SDS011;26262;49.836;6.632;2024-03-02T01:40:09;4.75;;;1.80;;
39346;SDS011;26262;49.836;6.632;2024-03-02T01:42:36;4.88;;;1.92;;
39346;SDS011;26262;49.836;6.632;2024-03-02T01:45:02;7.27;;;3.20;;
39346;SDS011;26262;49.836;6.632;2024-03-02T01:47:32;4.78;;;2.35;;
39346;SDS011;26262;49.836;6.632;2024-03-02T01:49:57;3.85;;;2.45;;
39346;SDS011;26262;49.836;6.632;2024-03-02T01:52:24;2.60;;;1.40;;
39346;SDS011;26262;49.836;6.632;2024-03-02T01:54:49;2.40;;;1.30;;
39346;SDS011;26262;49.836;6.632;2024-03-02T01:57:15;3.92;;;1.00;;
39346;SDS011;26262;49.836;6.632;2024-03-02T01:59:40;3.97;;;1.90;;
39346;SDS011;26262;49.836;6.632;2024-03-02T02:02:06;5.53;;;1.70;;
39346;SDS011;26262;49.836;6.632;2024-03-02T02:04:32;5.20;;;1.80;;
39346;SDS011;26262;49.836;6.632;2024-03-02T02:06:58;5.07;;;2.35;;
39346;SDS011;26262;49.836;6.632;2024-03-02T02:09:24;2.55;;;1.33;;
39346;SDS011;26262;49.836;6.632;2024-03-02T02:11:50;4.15;;;1.40;;
39346;SDS011;26262;49.836;6.632;2024-03-02T02:14:16;3.55;;;1.08;;
39346;SDS011;26262;49.836;6.632;2024-03-02T02:16:42;4.57;;;1.02;;
39346;SDS011;26262;49.836;6.632;2024-03-02T02:19:08;2.70;;;1.10;;
39346;SDS011;26262;49.836;6.632;2024-03-02T02:21:34;5.00;;;1.75;;
39346;SDS011;26262;49.836;6.632;2024-03-02T02:24:00;4.45;;;1.30;;
39346;SDS011;26262;49.836;6.632;2024-03-02T02:28:53;4.68;;;1.63;;
39346;SDS011;26262;49.836;6.632;2024-03-02T02:31:18;3.60;;;1.10;;
39346;SDS011;26262;49.836;6.632;2024-03-02T02:33:44;3.40;;;1.17;;
39346;SDS011;26262;49.836;6.632;2024-03-02T02:36:09;2.53;;;1.20;;
39346;SDS011;26262;49.836;6.632;2024-03-02T02:38:36;3.63;;;1.20;;
39346;SDS011;26262;49.836;6.632;2024-03-02T02:41:07;2.85;;;1.00;;
39346;SDS011;26262;49.836;6.632;2024-03-02T02:43:33;4.28;;;1.02;;
39346;SDS011;26262;49.836;6.632;2024-03-02T02:45:59;4.05;;;1.02;;
39346;SDS011;26262;49.836;6.632;2024-03-02T02:48:24;7.38;;;1.70;;
39346;SDS011;26262;49.836;6.632;2024-03-02T02:50:50;4.75;;;1.40;;
39346;SDS011;26262;49.836;6.632;2024-03-02T02:53:16;4.80;;;1.65;;
39346;SDS011;26262;49.836;6.632;2024-03-02T02:55:41;4.88;;;1.13;;
39346;SDS011;26262;49.836;6.632;2024-03-02T02:58:08;5.43;;;1.10;;
39346;SDS011;26262;49.836;6.632;2024-03-02T03:00:34;5.15;;;1.00;;
39346;SDS011;26262;49.836;6.632;2024-03-02T03:03:01;1.95;;;1.15;;
39346;SDS011;26262;49.836;6.632;2024-03-02T03:05:27;1.75;;;0.80;;
39346;SDS011;26262;49.836;6.632;2024-03-02T03:07:53;3.03;;;1.70;;
39346;SDS011;26262;49.836;6.632;2024-03-02T03:10:18;1.02;;;0.73;;
39346;SDS011;26262;49.836;6.632;2024-03-02T03:12:46;2.63;;;0.70;;
39346;SDS011;26262;49.836;6.632;2024-03-02T03:15:12;2.92;;;0.73;;
39346;SDS011;26262;49.836;6.632;2024-03-02T03:17:39;2.30;;;0.80;;
39346;SDS011;26262;49.836;6.632;2024-03-02T03:20:05;3.03;;;1.10;;
39346;SDS011;26262;49.836;6.632;2024-03-02T03:22:31;3.28;;;0.80;;
39346;SDS011;26262;49.836;6.632;2024-03-02T03:25:00;2.10;;;0.70;;
39346;SDS011;26262;49.836;6.632;2024-03-02T03:27:25;3.92;;;1.05;;
39346;SDS011;26262;49.836;6.632;2024-03-02T03:29:51;1.98;;;0.85;;
39346;SDS011;26262;49.836;6.632;2024-03-02T03:32:17;3.28;;;0.88;;
39346;SDS011;26262;49.836;6.632;2024-03-02T03:34:42;2.42;;;0.70;;
39346;SDS011;26262;49.836;6.632;2024-03-02T03:37:08;1.90;;;0.90;;
39346;SDS011;26262;49.836;6.632;2024-03-02T03:39:35;2.50;;;0.80;;
39346;SDS011;26262;49.836;6.632;2024-03-02T03:42:01;2.65;;;0.98;;
39346;SDS011;26262;49.836;6.632;2024-03-02T03:44:26;2.83;;;1.50;;
39346;SDS011;26262;49.836;6.632;2024-03-02T03:46:52;3.20;;;1.00;;
39346;SDS011;26262;49.836;6.632;2024-03-02T03:49:17;3.83;;;1.20;;
39346;SDS011;26262;49.836;6.632;2024-03-02T03:51:43;3.03;;;1.52;;
39346;SDS011;26262;49.836;6.632;2024-03-02T03:54:08;6.35;;;1.17;;
39346;SDS011;26262;49.836;6.632;2024-03-02T03:56:36;1.33;;;0.80;;
39346;SDS011;26262;49.836;6.632;2024-03-02T03:59:01;2.75;;;1.10;;
39346;SDS011;26262;49.836;6.632;2024-03-02T04:01:27;5.38;;;1.40;;
39346;SDS011;26262;49.836;6.632;2024-03-02T04:03:53;1.98;;;1.10;;
39346;SDS011;26262;49.836;6.632;2024-03-02T04:06:18;3.42;;;0.98;;
39346;SDS011;26262;49.836;6.632;2024-03-02T04:08:44;2.72;;;1.13;;
39346;SDS011;26262;49.836;6.632;2024-03-02T04:11:09;2.72;;;1.20;;
39346;SDS011;26262;49.836;6.632;2024-03-02T04:13:35;4.82;;;1.13;;
39346;SDS011;26262;49.836;6.632;2024-03-02T04:16:00;5.20;;;1.20;;
39346;SDS011;26262;49.836;6.632;2024-03-02T04:18:26;2.90;;;1.05;;
39346;SDS011;26262;49.836;6.632;2024-03-02T04:20:51;2.45;;;1.20;;
39346;SDS011;26262;49.836;6.632;2024-03-02T04:23:17;2.80;;;1.30;;
39346;SDS011;26262;49.836;6.632;2024-03-02T04:25:42;3.20;;;1.10;;
39346;SDS011;26262;49.836;6.632;2024-03-02T04:28:08;3.78;;;1.40;;
39346;SDS011;26262;49.836;6.632;2024-03-02T04:30:33;2.05;;;1.02;;
39346;SDS011;26262;49.836;6.632;2024-03-02T04:32:59;2.53;;;1.20;;
39346;SDS011;26262;49.836;6.632;2024-03-02T04:35:24;3.88;;;1.17;;
39346;SDS011;26262;49.836;6.632;2024-03-02T04:37:50;3.40;;;1.02;;
39346;SDS011;26262;49.836;6.632;2024-03-02T04:40:16;2.90;;;1.23;;
39346;SDS011;26262;49.836;6.632;2024-03-02T04:42:41;2.33;;;1.05;;
39346;SDS011;26262;49.836;6.632;2024-03-02T04:45:08;2.00;;;1.05;;
39346;SDS011;26262;49.836;6.632;2024-03-02T04:47:33;2.72;;;1.30;;
39346;SDS011;26262;49.836;6.632;2024-03-02T04:49:59;3.67;;;1.27;;
39346;SDS011;26262;49.836;6.632;2024-03-02T04:52:24;2.67;;;1.45;;
39346;SDS011;26262;49.836;6.632;2024-03-02T04:54:50;3.40;;;1.23;;
39346;SDS011;26262;49.836;6.632;2024-03-02T04:57:34;2.92;;;1.30;;
39346;SDS011;26262;49.836;6.632;2024-03-02T05:00:00;2.42;;;1.23;;
39346;SDS011;26262;49.836;6.632;2024-03-02T05:02:26;3.35;;;1.13;;
39346;SDS011;26262;49.836;6.632;2024-03-02T05:04:51;2.08;;;1.23;;
39346;SDS011;26262;49.836;6.632;2024-03-02T05:07:17;5.38;;;1.33;;
39346;SDS011;26262;49.836;6.632;2024-03-02T05:09:42;3.05;;;1.25;;
39346;SDS011;26262;49.836;6.632;2024-03-02T05:12:08;3.30;;;1.08;;
39346;SDS011;26262;49.836;6.632;2024-03-02T05:14:47;2.50;;;1.05;;
39346;SDS011;26262;49.836;6.632;2024-03-02T05:17:13;1.45;;;0.70;;
39346;SDS011;26262;49.836;6.632;2024-03-02T05:19:39;1.83;;;0.80;;
39346;SDS011;26262;49.836;6.632;2024-03-02T05:22:04;2.25;;;1.00;;
39346;SDS011;26262;49.836;6.632;2024-03-02T05:24:30;2.65;;;0.93;;
39346;SDS011;26262;49.836;6.632;2024-03-02T05:26:56;4.47;;;1.15;;
39346;SDS011;26262;49.836;6.632;2024-03-02T05:29:21;1.33;;;0.80;;
39346;SDS011;26262;49.836;6.632;2024-03-02T05:31:47;3.40;;;1.15;;
39346;SDS011;26262;49.836;6.632;2024-03-02T05:34:13;1.75;;;0.77;;
39346;SDS011;26262;49.836;6.632;2024-03-02T05:36:39;2.88;;;1.50;;
39346;SDS011;26262;49.836;6.632;2024-03-02T05:39:05;3.30;;;1.10;;
39346;SDS011;26262;49.836;6.632;2024-03-02T05:41:34;6.35;;;1.58;;
39346;SDS011;26262;49.836;6.632;2024-03-02T05:44:00;3.28;;;1.05;;
39346;SDS011;26262;49.836;6.632;2024-03-02T05:46:26;3.85;;;0.93;;
39346;SDS011;26262;49.836;6.632;2024-03-02T05:48:52;1.85;;;1.00;;
39346;SDS011;26262;49.836;6.632;2024-03-02T05:51:17;2.35;;;1.05;;
39346;SDS011;26262;49.836;6.632;2024-03-02T05:53:43;2.90;;;1.30;;
39346;SDS011;26262;49.836;6.632;2024-03-02T05:56:08;2.92;;;0.98;;
39346;SDS011;26262;49.836;6.632;2024-03-02T05:58:34;2.40;;;1.00;;
39346;SDS011;26262;49.836;6.632;2024-03-02T06:01:29;1.83;;;0.90;;
39346;SDS011;26262;49.836;6.632;2024-03-02T06:03:55;3.15;;;1.10;;
39346;SDS011;26262;49.836;6.632;2024-03-02T06:06:22;3.45;;;0.75;;
39346;SDS011;26262;49.836;6.632;2024-03-02T06:08:47;1.77;;;0.60;;
39346;SDS011;26262;49.836;6.632;2024-03-02T06:11:13;6.65;;;0.77;;
39346;SDS011;26262;49.836;6.632;2024-03-02T06:13:38;4.72;;;0.80;;
39346;SDS011;26262;49.836;6.632;2024-03-02T06:16:04;2.75;;;0.90;;
39346;SDS011;26262;49.836;6.632;2024-03-02T06:18:30;4.00;;;1.13;;
39346;SDS011;26262;49.836;6.632;2024-03-02T06:20:55;5.03;;;1.20;;
39346;SDS011;26262;49.836;6.632;2024-03-02T06:23:21;2.50;;;1.20;;
39346;SDS011;26262;49.836;6.632;2024-03-02T06:25:46;3.33;;;1.27;;
39346;SDS011;26262;49.836;6.632;2024-03-02T06:28:12;3.33;;;0.90;;
39346;SDS011;26262;49.836;6.632;2024-03-02T06:30:40;4.70;;;1.30;;
39346;SDS011;26262;49.836;6.632;2024-03-02T06:33:07;1.73;;;1.17;;
39346;SDS011;26262;49.836;6.632;2024-03-02T06:35:32;3.67;;;1.33;;
39346;SDS011;26262;49.836;6.632;2024-03-02T06:37:58;3.95;;;1.20;;
39346;SDS011;26262;49.836;6.632;2024-03-02T06:40:23;4.20;;;1.15;;
39346;SDS011;26262;49.836;6.632;2024-03-02T06:42:49;2.67;;;1.20;;
39346;SDS011;26262;49.836;6.632;2024-03-02T06:45:14;3.55;;;1.92;;
39346;SDS011;26262;49.836;6.632;2024-03-02T06:47:40;8.02;;;4.97;;
39346;SDS011;26262;49.836;6.632;2024-03-02T06:50:05;10.73;;;7.07;;
39346;SDS011;26262;49.836;6.632;2024-03-02T06:52:32;8.10;;;5.07;;
39346;SDS011;26262;49.836;6.632;2024-03-02T06:54:57;9.10;;;3.40;;
39346;SDS011;26262;49.836;6.632;2024-03-02T06:57:23;3.75;;;2.15;;
39346;SDS011;26262;49.836;6.632;2024-03-02T06:59:49;2.53;;;1.40;;
39346;SDS011;26262;49.836;6.632;2024-03-02T07:02:16;2.30;;;1.35;;
39346;SDS011;26262;49.836;6.632;2024-03-02T07:04:42;4.30;;;1.63;;
39346;SDS011;26262;49.836;6.632;2024-03-02T07:07:07;3.25;;;1.85;;
39346;SDS011;26262;49.836;6.632;2024-03-02T07:09:33;5.72;;;1.63;;
39346;SDS011;26262;49.836;6.632;2024-03-02T07:11:58;2.25;;;1.33;;
39346;SDS011;26262;49.836;6.632;2024-03-02T07:14:24;3.72;;;1.75;;
39346;SDS011;26262;49.836;6.632;2024-03-02T07:17:09;2.58;;;1.58;;
39346;SDS011;26262;49.836;6.632;2024-03-02T07:19:35;2.53;;;1.50;;
39346;SDS011;26262;49.836;6.632;2024-03-02T07:22:01;3.70;;;1.58;;
39346;SDS011;26262;49.836;6.632;2024-03-02T07:24:30;2.75;;;1.10;;
39346;SDS011;26262;49.836;6.632;2024-03-02T07:26:56;3.95;;;1.85;;
39346;SDS011;26262;49.836;6.632;2024-03-02T07:29:21;3.47;;;1.75;;
39346;SDS011;26262;49.836;6.632;2024-03-02T07:31:47;2.78;;;1.58;;
39346;SDS011;26262;49.836;6.632;2024-03-02T07:34:13;2.67;;;1.35;;
39346;SDS011;26262;49.836;6.632;2024-03-02T07:36:38;2.55;;;1.25;;
39346;SDS011;26262;49.836;6.632;2024-03-02T07:39:04;3.65;;;1.38;;
39346;SDS011;26262;49.836;6.632;2024-03-02T07:41:29;1.85;;;1.15;;
39346;SDS011;26262;49.836;6.632;2024-03-02T07:43:56;3.38;;;1.40;;
39346;SDS011;26262;49.836;6.632;2024-03-02T07:46:21;3.97;;;1.23;;
39346;SDS011;26262;49.836;6.632;2024-03-02T07:48:47;1.75;;;1.15;;
39346;SDS011;26262;49.836;6.632;2024-03-02T07:51:13;4.03;;;1.40;;
39346;SDS011;26262;49.836;6.632;2024-03-02T07:53:39;2.88;;;1.60;;
39346;SDS011;26262;49.836;6.632;2024-03-02T07:56:04;3.70;;;1.65;;
39346;SDS011;26262;49.836;6.632;2024-03-02T07:58:31;2.22;;;1.40;;
39346;SDS011;26262;49.836;6.632;2024-03-02T08:00:58;2.63;;;1.45;;
39346;SDS011;26262;49.836;6.632;2024-03-02T08:03:26;4.50;;;1.40;;
39346;SDS011;26262;49.836;6.632;2024-03-02T08:05:52;3.13;;;1.48;;
39346;SDS011;26262;49.836;6.632;2024-03-02T08:08:17;3.42;;;1.30;;
39346;SDS011;26262;49.836;6.632;2024-03-02T08:10:43;3.95;;;1.50;;
39346;SDS011;26262;49.836;6.632;2024-03-02T08:13:09;3.72;;;1.65;;
39346;SDS011;26262;49.836;6.632;2024-03-02T08:15:34;3.30;;;1.27;;
39346;SDS011;26262;49.836;6.632;2024-03-02T08:18:00;3.80;;;1.48;;
39346;SDS011;26262;49.836;6.632;2024-03-02T08:20:26;3.42;;;1.70;;
39346;SDS011;26262;49.836;6.632;2024-03-02T08:22:51;3.50;;;1.73;;
39346;SDS011;26262;49.836;6.632;2024-03-02T08:25:19;5.80;;;2.05;;
39346;SDS011;26262;49.836;6.632;2024-03-02T08:27:45;5.13;;;1.90;;
39346;SDS011;26262;49.836;6.632;2024-03-02T08:30:11;3.58;;;2.00;;
39346;SDS011;26262;49.836;6.632;2024-03-02T08:32:37;4.90;;;2.25;;
39346;SDS011;26262;49.836;6.632;2024-03-02T08:35:03;3.35;;;2.03;;
39346;SDS011;26262;49.836;6.632;2024-03-02T08:37:29;4.72;;;2.22;;
39346;SDS011;26262;49.836;6.632;2024-03-02T08:39:55;5.10;;;2.10;;
39346;SDS011;26262;49.836;6.632;2024-03-02T08:42:21;4.05;;;1.80;;
39346;SDS011;26262;49.836;6.632;2024-03-02T08:44:47;5.22;;;1.90;;
39346;SDS011;26262;49.836;6.632;2024-03-02T08:47:13;2.83;;;1.95;;
39346;SDS011;26262;49.836;6.632;2024-03-02T08:49:38;4.70;;;2.00;;
39346;SDS011;26262;49.836;6.632;2024-03-02T08:52:04;5.38;;;1.73;;
39346;SDS011;26262;49.836;6.632;2024-03-02T08:54:30;3.20;;;1.92;;
39346;SDS011;26262;49.836;6.632;2024-03-02T08:56:56;4.30;;;1.90;;
39346;SDS011;26262;49.836;6.632;2024-03-02T08:59:21;4.13;;;1.70;;
39346;SDS011;26262;49.836;6.632;2024-03-02T09:01:47;3.10;;;1.65;;
39346;SDS011;26262;49.836;6.632;2024-03-02T09:04:14;3.97;;;1.58;;
39346;SDS011;26262;49.836;6.632;2024-03-02T09:06:39;2.80;;;1.63;;
39346;SDS011;26262;49.836;6.632;2024-03-02T09:09:06;4.95;;;1.60;;
39346;SDS011;26262;49.836;6.632;2024-03-02T09:11:31;3.85;;;1.70;;
39346;SDS011;26262;49.836;6.632;2024-03-02T09:13:57;4.07;;;1.70;;
39346;SDS011;26262;49.836;6.632;2024-03-02T09:16:23;3.58;;;1.50;;
39346;SDS011;26262;49.836;6.632;2024-03-02T09:18:49;3.65;;;1.70;;
39346;SDS011;26262;49.836;6.632;2024-03-02T09:21:15;2.95;;;1.40;;
39346;SDS011;26262;49.836;6.632;2024-03-02T09:23:40;2.58;;;1.10;;
39346;SDS011;26262;49.836;6.632;2024-03-02T09:26:06;3.55;;;1.30;;
39346;SDS011;26262;49.836;6.632;2024-03-02T09:28:31;4.72;;;1.40;;
39346;SDS011;26262;49.836;6.632;2024-03-02T09:30:57;2.53;;;1.23;;
39346;SDS011;26262;49.836;6.632;2024-03-02T09:33:22;2.72;;;1.30;;
39346;SDS011;26262;49.836;6.632;2024-03-02T09:35:48;3.08;;;1.40;;
39346;SDS011;26262;49.836;6.632;2024-03-02T09:38:13;4.15;;;1.20;;
39346;SDS011;26262;49.836;6.632;2024-03-02T09:40:40;3.97;;;1.13;;
39346;SDS011;26262;49.836;6.632;2024-03-02T09:43:07;2.53;;;1.00;;
39346;SDS011;26262;49.836;6.632;2024-03-02T09:45:32;3.13;;;1.00;;
39346;SDS011;26262;49.836;6.632;2024-03-02T09:47:58;4.43;;;1.40;;
39346;SDS011;26262;49.836;6.632;2024-03-02T09:50:24;4.72;;;1.42;;
39346;SDS011;26262;49.836;6.632;2024-03-02T09:52:50;2.72;;;1.02;;
39346;SDS011;26262;49.836;6.632;2024-03-02T09:55:17;3.45;;;1.50;;
39346;SDS011;26262;49.836;6.632;2024-03-02T09:57:44;2.75;;;1.00;;
39346;SDS011;26262;49.836;6.632;2024-03-02T10:00:10;2.60;;;1.02;;
39346;SDS011;26262;49.836;6.632;2024-03-02T10:02:40;4.57;;;1.20;;
39346;SDS011;26262;49.836;6.632;2024-03-02T10:05:07;1.50;;;0.87;;
39346;SDS011;26262;49.836;6.632;2024-03-02T10:07:33;3.13;;;1.67;;
39346;SDS011;26262;49.836;6.632;2024-03-02T10:09:59;1.98;;;0.70;;
39346;SDS011;26262;49.836;6.632;2024-03-02T10:12:40;1.52;;;0.90;;
39346;SDS011;26262;49.836;6.632;2024-03-02T10:15:05;4.07;;;1.40;;
39346;SDS011;26262;49.836;6.632;2024-03-02T10:17:32;2.25;;;0.73;;
39346;SDS011;26262;49.836;6.632;2024-03-02T10:19:58;2.30;;;0.98;;
39346;SDS011;26262;49.836;6.632;2024-03-02T10:22:23;3.30;;;0.90;;
39346;SDS011;26262;49.836;6.632;2024-03-02T10:24:49;2.95;;;0.82;;
39346;SDS011;26262;49.836;6.632;2024-03-02T10:27:15;2.78;;;0.77;;
39346;SDS011;26262;49.836;6.632;2024-03-02T10:29:46;2.58;;;0.90;;
39346;SDS011;26262;49.836;6.632;2024-03-02T10:32:12;2.03;;;1.00;;
39346;SDS011;26262;49.836;6.632;2024-03-02T10:34:41;2.00;;;0.70;;
39346;SDS011;26262;49.836;6.632;2024-03-02T10:37:10;4.15;;;1.15;;
39346;SDS011;26262;49.836;6.632;2024-03-02T10:39:36;3.22;;;1.13;;
39346;SDS011;26262;49.836;6.632;2024-03-02T10:42:04;1.85;;;0.70;;
39346;SDS011;26262;49.836;6.632;2024-03-02T10:44:31;2.45;;;0.95;;
39346;SDS011;26262;49.836;6.632;2024-03-02T10:47:01;1.67;;;0.95;;
39346;SDS011;26262;49.836;6.632;2024-03-02T10:49:29;1.58;;;0.80;;
39346;SDS011;26262;49.836;6.632;2024-03-02T10:51:56;2.55;;;1.00;;
39346;SDS011;26262;49.836;6.632;2024-03-02T10:54:25;3.47;;;0.90;;
39346;SDS011;26262;49.836;6.632;2024-03-02T10:57:01;2.60;;;1.08;;
39346;SDS011;26262;49.836;6.632;2024-03-02T10:59:28;3.00;;;1.10;;
39346;SDS011;26262;49.836;6.632;2024-03-02T11:02:03;2.67;;;1.10;;
39346;SDS011;26262;49.836;6.632;2024-03-02T11:04:30;2.72;;;0.98;;
39346;SDS011;26262;49.836;6.632;2024-03-02T11:07:00;3.65;;;1.30;;
39346;SDS011;26262;49.836;6.632;2024-03-02T11:09:33;3.55;;;1.20;;
39346;SDS011;26262;49.836;6.632;2024-03-02T11:12:03;2.78;;;1.30;;
39346;SDS011;26262;49.836;6.632;2024-03-02T11:14:41;5.25;;;1.40;;
39346;SDS011;26262;49.836;6.632;2024-03-02T11:17:10;2.30;;;1.20;;
39346;SDS011;26262;49.836;6.632;2024-03-02T11:19:38;2.80;;;1.40;;
39346;SDS011;26262;49.836;6.632;2024-03-02T11:22:05;6.45;;;1.33;;
39346;SDS011;26262;49.836;6.632;2024-03-02T11:24:32;3.40;;;1.27;;
39346;SDS011;26262;49.836;6.632;2024-03-02T11:26:58;2.58;;;1.20;;
39346;SDS011;26262;49.836;6.632;2024-03-02T11:32:15;2.92;;;1.45;;
39346;SDS011;26262;49.836;6.632;2024-03-02T11:34:50;4.88;;;1.40;;
39346;SDS011;26262;49.836;6.632;2024-03-02T11:37:17;2.20;;;1.20;;
39346;SDS011;26262;49.836;6.632;2024-03-02T11:39:44;2.97;;;1.48;;
39346;SDS011;26262;49.836;6.632;2024-03-02T11:42:10;1.85;;;1.20;;
39346;SDS011;26262;49.836;6.632;2024-03-02T11:44:39;1.67;;;1.27;;
39346;SDS011;26262;49.836;6.632;2024-03-02T11:47:06;2.00;;;1.30;;
39346;SDS011;26262;49.836;6.632;2024-03-02T11:49:40;4.05;;;1.23;;
39346;SDS011;26262;49.836;6.632;2024-03-02T11:52:07;3.15;;;1.23;;
39346;SDS011;26262;49.836;6.632;2024-03-02T11:54:34;3.13;;;1.30;;
39346;SDS011;26262;49.836;6.632;2024-03-02T11:57:06;2.83;;;1.20;;
39346;SDS011;26262;49.836;6.632;2024-03-02T11:59:32;3.03;;;1.48;;
39346;SDS011;26262;49.836;6.632;2024-03-02T12:01:58;2.53;;;1.60;;
39346;SDS011;26262;49.836;6.632;2024-03-02T12:04:24;3.20;;;1.33;;
39346;SDS011;26262;49.836;6.632;2024-03-02T12:06:54;3.58;;;1.27;;
39346;SDS011;26262;49.836;6.632;2024-03-02T12:09:34;3.03;;;1.20;;
39346;SDS011;26262;49.836;6.632;2024-03-02T12:12:04;2.28;;;1.20;;
39346;SDS011;26262;49.836;6.632;2024-03-02T12:14:31;3.15;;;1.15;;
39346;SDS011;26262;49.836;6.632;2024-03-02T12:16:57;1.97;;;1.10;;
39346;SDS011;26262;49.836;6.632;2024-03-02T12:19:24;3.97;;;1.00;;
39346;SDS011;26262;49.836;6.632;2024-03-02T12:21:51;1.50;;;1.00;;
39346;SDS011;26262;49.836;6.632;2024-03-02T12:24:17;1.38;;;0.95;;
39346;SDS011;26262;49.836;6.632;2024-03-02T12:26:43;3.10;;;1.30;;
39346;SDS011;26262;49.836;6.632;2024-03-02T12:29:10;2.13;;;0.90;;
39346;SDS011;26262;49.836;6.632;2024-03-02T12:31:36;1.10;;;0.68;;
39346;SDS011;26262;49.836;6.632;2024-03-02T12:34:02;2.90;;;0.98;;
39346;SDS011;26262;49.836;6.632;2024-03-02T12:36:29;2.42;;;1.33;;
39346;SDS011;26262;49.836;6.632;2024-03-02T12:38:54;2.90;;;1.25;;
39346;SDS011;26262;49.836;6.632;2024-03-02T12:41:20;2.28;;;1.25;;
39346;SDS011;26262;49.836;6.632;2024-03-02T12:43:46;2.58;;;1.50;;
39346;SDS011;26262;49.836;6.632;2024-03-02T12:46:11;1.73;;;0.90;;
39346;SDS011;26262;49.836;6.632;2024-03-02T12:48:37;2.28;;;1.08;;
39346;SDS011;26262;49.836;6.632;2024-03-02T12:51:05;1.30;;;1.00;;
39346;SDS011;26262;49.836;6.632;2024-03-02T12:53:31;1.90;;;0.90;;
39346;SDS011;26262;49.836;6.632;2024-03-02T12:55:57;4.35;;;1.08;;
39346;SDS011;26262;49.836;6.632;2024-03-02T12:58:23;3.60;;;1.10;;
39346;SDS011;26262;49.836;6.632;2024-03-02T13:00:48;1.80;;;0.98;;
39346;SDS011;26262;49.836;6.632;2024-03-02T13:03:14;3.10;;;1.10;;
39346;SDS011;26262;49.836;6.632;2024-03-02T13:05:43;2.53;;;0.98;;
39346;SDS011;26262;49.836;6.632;2024-03-02T13:08:14;1.63;;;0.70;;
39346;SDS011;26262;49.836;6.632;2024-03-02T13:10:40;1.60;;;0.75;;
39346;SDS011;26262;49.836;6.632;2024-03-02T13:13:06;1.38;;;0.80;;
39346;SDS011;26262;49.836;6.632;2024-03-02T13:15:32;2.20;;;1.17;;
39346;SDS011;26262;49.836;6.632;2024-03-02T13:17:58;2.63;;;1.02;;
39346;SDS011;26262;49.836;6.632;2024-03-02T13:20:32;1.27;;;0.80;;
39346;SDS011;26262;49.836;6.632;2024-03-02T13:22:58;1.45;;;0.90;;
39346;SDS011;26262;49.836;6.632;2024-03-02T13:25:23;2.47;;;1.00;;
39346;SDS011;26262;49.836;6.632;2024-03-02T13:27:49;1.58;;;0.95;;
39346;SDS011;26262;49.836;6.632;2024-03-02T13:30:14;1.77;;;0.75;;
39346;SDS011;26262;49.836;6.632;2024-03-02T13:32:40;1.13;;;0.82;;
39346;SDS011;26262;49.836;6.632;2024-03-02T13:35:05;1.83;;;0.80;;
39346;SDS011;26262;49.836;6.632;2024-03-02T13:37:31;2.72;;;1.10;;
39346;SDS011;26262;49.836;6.632;2024-03-02T13:39:58;1.98;;;0.70;;
39346;SDS011;26262;49.836;6.632;2024-03-02T13:42:23;2.15;;;0.95;;
39346;SDS011;26262;49.836;6.632;2024-03-02T13:44:49;1.85;;;0.60;;
39346;SDS011;26262;49.836;6.632;2024-03-02T13:47:16;1.02;;;0.77;;
39346;SDS011;26262;49.836;6.632;2024-03-02T13:49:42;1.50;;;0.80;;
39346;SDS011;26262;49.836;6.632;2024-03-02T13:52:11;1.25;;;0.70;;
39346;SDS011;26262;49.836;6.632;2024-03-02T13:54:45;1.52;;;0.90;;
39346;SDS011;26262;49.836;6.632;2024-03-02T13:57:11;2.20;;;0.70;;
39346;SDS011;26262;49.836;6.632;2024-03-02T13:59:38;1.75;;;0.80;;
39346;SDS011;26262;49.836;6.632;2024-03-02T14:02:04;1.17;;;0.60;;
39346;SDS011;26262;49.836;6.632;2024-03-02T14:04:31;1.55;;;0.80;;
39346;SDS011;26262;49.836;6.632;2024-03-02T14:06:58;1.70;;;0.80;;
39346;SDS011;26262;49.836;6.632;2024-03-02T14:09:24;1.17;;;0.70;;
39346;SDS011;26262;49.836;6.632;2024-03-02T14:11:50;1.25;;;0.70;;
39346;SDS011;26262;49.836;6.632;2024-03-02T14:14:16;3.10;;;0.80;;
39346;SDS011;26262;49.836;6.632;2024-03-02T14:16:42;1.20;;;0.60;;
39346;SDS011;26262;49.836;6.632;2024-03-02T14:19:08;2.38;;;0.50;;
39346;SDS011;26262;49.836;6.632;2024-03-02T14:21:34;1.58;;;0.70;;
39346;SDS011;26262;49.836;6.632;2024-03-02T14:24:01;1.13;;;0.63;;
39346;SDS011;26262;49.836;6.632;2024-03-02T14:26:26;1.00;;;0.60;;
39346;SDS011;26262;49.836;6.632;2024-03-02T14:28:53;1.33;;;0.70;;
39346;SDS011;26262;49.836;6.632;2024-03-02T14:31:19;1.27;;;0.85;;
39346;SDS011;26262;49.836;6.632;2024-03-02T14:33:45;2.58;;;0.90;;
39346;SDS011;26262;49.836;6.632;2024-03-02T14:36:11;1.60;;;1.00;;
39346;SDS011;26262;49.836;6.632;2024-03-02T14:38:37;1.38;;;0.88;;
39346;SDS011;26262;49.836;6.632;2024-03-02T14:41:03;1.52;;;0.80;;
39346;SDS011;26262;49.836;6.632;2024-03-02T14:43:29;2.20;;;0.88;;
39346;SDS011;26262;49.836;6.632;2024-03-02T14:45:54;1.55;;;0.80;;
39346;SDS011;26262;49.836;6.632;2024-03-02T14:48:20;1.48;;;0.82;;
39346;SDS011;26262;49.836;6.632;2024-03-02T14:50:46;3.20;;;1.23;;
39346;SDS011;26262;49.836;6.632;2024-03-02T14:53:12;1.17;;;0.73;;
39346;SDS011;26262;49.836;6.632;2024-03-02T14:55:37;1.02;;;0.57;;
39346;SDS011;26262;49.836;6.632;2024-03-02T14:58:03;1.35;;;0.80;;